Time;durP1;ratioP1;P1;durP2;ratioP2;P2;SDS_P1;SDS_P2;PMS_P1;PMS_P2;Temp;Humidity;BMP_temperature;BMP_pressure;BME280_temperature;BME280_humidity;BME280_pressure;Samples;Min_cycle;Max_cycle;Signal;HPM_P1;HPM_P2
2021/01/22 00:02:37;;;;;;;62.27;32.25;;;;;;;-1.37;100.00;99698.64;1776473;79;22819;-51
2021/01/22 00:09:08;;;;;;;65.62;34.20;;;;;;;-1.46;100.00;99690.73;1782647;78;23391;-52
2021/01/22 00:11:36;;;;;;;68.92;32.48;;;;;;;-1.55;100.00;99692.06;1730039;80;21009;-52
2021/01/22 00:14:05;;;;;;;63.20;32.48;;;;;;;-1.57;100.00;99689.88;1730839;80;21210;-51
2021/01/22 00:16:32;;;;;;;69.95;32.63;;;;;;;-1.61;100.00;99693.84;1731417;80;21077;-51
2021/01/22 00:19:01;;;;;;;64.65;33.08;;;;;;;-1.65;100.00;99697.39;1733879;80;21108;-52
2021/01/22 00:21:29;;;;;;;64.50;32.40;;;;;;;-1.67;100.00;99688.56;1730777;80;21139;-51
2021/01/22 00:23:58;;;;;;;64.97;34.27;;;;;;;-1.67;100.00;99684.61;1732015;80;21557;-51
2021/01/22 00:26:26;;;;;;;61.83;32.85;;;;;;;-1.70;100.00;99679.34;1734132;80;22357;-51
2021/01/22 00:28:54;;;;;;;67.47;32.65;;;;;;;-1.71;100.00;99687.25;1733072;80;21029;-52
2021/01/22 00:31:22;;;;;;;67.62;33.58;;;;;;;-1.72;100.00;99681.09;1734428;80;21201;-51
2021/01/22 00:33:50;;;;;;;66.50;33.67;;;;;;;-1.73;100.00;99679.33;1732681;80;21029;-51
2021/01/22 00:36:18;;;;;;;68.78;34.27;;;;;;;-1.71;100.00;99674.91;1731760;80;21108;-51
2021/01/22 00:38:46;;;;;;;55.20;30.72;;;;;;;-1.73;100.00;99672.72;1731799;80;21379;-52
2021/01/22 00:41:15;;;;;;;64.30;33.33;;;;;;;-1.72;100.00;99663.91;1732542;80;21501;-51
2021/01/22 00:43:43;;;;;;;61.53;31.60;;;;;;;-1.71;100.00;99666.98;1730911;80;21151;-51
2021/01/22 00:46:11;;;;;;;61.73;31.40;;;;;;;-1.69;100.00;99669.64;1729178;80;21179;-52
2021/01/22 00:48:40;;;;;;;69.58;35.63;;;;;;;-1.70;100.00;99663.48;1732800;80;21126;-50
2021/01/22 00:51:07;;;;;;;64.22;32.38;;;;;;;-1.71;100.00;99661.70;1727504;80;21584;-51
2021/01/22 00:53:36;;;;;;;68.65;33.85;;;;;;;-1.70;100.00;99650.27;1731935;80;21058;-51
2021/01/22 00:56:04;;;;;;;62.43;31.50;;;;;;;-1.72;100.00;99648.05;1732128;80;21029;-52
2021/01/22 00:58:42;;;;;;;66.28;33.10;;;;;;;-1.65;100.00;99643.20;1810878;76;23393;-50
2021/01/22 01:01:18;;;;;;;64.50;33.88;;;;;;;-1.71;100.00;99639.22;1754623;79;20998;-52
2021/01/22 01:03:48;;;;;;;67.32;33.83;;;;;;;-1.70;100.00;99638.37;1757314;79;21186;-50
2021/01/22 01:06:16;;;;;;;64.32;33.92;;;;;;;-1.69;100.00;99638.80;1756789;79;21029;-51
2021/01/22 01:08:46;;;;;;;67.92;34.55;;;;;;;-1.69;100.00;99641.44;1755007;79;21029;-51
2021/01/22 01:11:25;;;;;;;67.45;34.30;;;;;;;-1.65;100.00;99637.91;1857683;75;22739;-50
2021/01/22 01:14:05;;;;;;;66.47;34.73;;;;;;;-1.69;100.00;99646.73;1823131;77;21092;-51
2021/01/22 01:16:33;;;;;;;79.32;37.48;;;;;;;-1.69;100.00;99630.87;1798529;77;21209;-51
2021/01/22 01:19:01;;;;;;;73.90;34.80;;;;;;;-1.67;100.00;99640.98;1795488;77;21037;-52
2021/01/22 01:21:29;;;;;;;67.58;33.70;;;;;;;-1.66;100.00;99644.05;1799294;77;20994;-51
2021/01/22 01:23:57;;;;;;;71.50;35.73;;;;;;;-1.62;100.00;99637.88;1798338;77;20998;-50
2021/01/22 01:26:27;;;;;;;73.37;36.00;;;;;;;-1.61;100.00;99638.31;1797426;77;21033;-50
2021/01/22 01:28:55;;;;;;;84.05;38.55;;;;;;;-1.61;100.00;99623.77;1796601;77;21449;-51
2021/01/22 01:31:23;;;;;;;83.17;40.38;;;;;;;-1.61;100.00;99620.25;1804678;77;21017;-49
2021/01/22 01:33:51;;;;;;;86.12;40.00;;;;;;;-1.63;100.00;99618.95;1799281;77;21141;-51
2021/01/22 01:36:21;;;;;;;89.52;44.77;;;;;;;-1.62;100.00;99608.80;1799899;77;20983;-50
2021/01/22 01:38:49;;;;;;;88.30;41.05;;;;;;;-1.59;100.00;99613.22;1801668;77;21092;-50
2021/01/22 01:41:17;;;;;;;88.78;41.15;;;;;;;-1.57;100.00;99614.52;1803957;77;22000;-49
2021/01/22 01:43:45;;;;;;;76.05;39.40;;;;;;;-1.57;100.00;99605.27;1799030;77;21622;-51
2021/01/22 01:46:13;;;;;;;78.35;37.98;;;;;;;-1.59;100.00;99607.93;1799851;77;21532;-49
2021/01/22 01:48:41;;;;;;;69.27;35.68;;;;;;;-1.60;100.00;99598.21;1802388;77;20975;-51
2021/01/22 01:51:10;;;;;;;75.17;36.50;;;;;;;-1.59;100.00;99598.23;1799001;77;21562;-51
2021/01/22 01:53:39;;;;;;;70.00;35.10;;;;;;;-1.56;100.00;99605.25;1800555;77;21570;-51
2021/01/22 01:56:07;;;;;;;67.12;34.05;;;;;;;-1.56;100.00;99596.45;1798582;77;21126;-50
2021/01/22 01:58:35;;;;;;;75.83;37.33;;;;;;;-1.53;100.00;99596.45;1769848;77;20982;-57
2021/01/22 02:01:03;;;;;;;71.97;35.68;;;;;;;-1.52;100.00;99594.23;1802021;77;21106;-51
2021/01/22 02:03:31;;;;;;;73.35;35.70;;;;;;;-1.53;100.00;99599.09;1799281;77;20959;-51
2021/01/22 02:06:00;;;;;;;72.82;35.17;;;;;;;-1.54;100.00;99592.05;1798274;77;21370;-50
2021/01/22 02:08:28;;;;;;;74.95;34.65;;;;;;;-1.52;100.00;99587.63;1800343;77;21566;-50
2021/01/22 02:10:56;;;;;;;75.17;36.65;;;;;;;-1.54;100.00;99581.48;1748310;78;21531;-51
2021/01/22 02:13:24;;;;;;;67.62;32.93;;;;;;;-1.53;100.00;99581.46;1772665;78;21042;-50
2021/01/22 02:15:53;;;;;;;71.05;33.18;;;;;;;-1.51;100.00;99588.05;1776514;78;21121;-49
2021/01/22 02:18:21;;;;;;;73.30;36.58;;;;;;;-1.52;100.00;99584.98;1748850;78;22284;-51
2021/01/22 02:21:09;;;;;;;74.30;35.58;;;;;;;-1.50;100.00;99583.19;1776226;78;21472;-50
2021/01/22 02:23:40;;;;;;;70.37;34.53;;;;;;;-1.50;100.00;99577.91;1773323;78;21044;-50
2021/01/22 02:26:32;;;;;;;68.33;33.85;;;;;;;-1.53;100.00;99564.72;1770413;78;20998;-49
2021/01/22 02:29:03;;;;;;;67.00;35.05;;;;;;;-1.53;100.00;99571.33;1770286;78;21688;-51
2021/01/22 02:31:32;;;;;;;67.42;32.23;;;;;;;-1.53;100.00;99564.72;1768787;78;21257;-49
2021/01/22 02:34:06;;;;;;;73.22;36.42;;;;;;;-1.54;100.00;99565.61;1769313;78;21204;-50
2021/01/22 02:36:37;;;;;;;68.05;34.30;;;;;;;-1.54;100.00;99570.45;1768182;78;21137;-49
2021/01/22 02:39:08;;;;;;;72.12;34.95;;;;;;;-1.53;100.00;99575.30;1772135;78;20975;-50
2021/01/22 02:41:38;;;;;;;74.07;35.10;;;;;;;-1.52;100.00;99571.76;1769976;78;20994;-50
2021/01/22 02:44:06;;;;;;;66.55;30.82;;;;;;;-1.51;100.00;99578.35;1768957;78;21381;-50
2021/01/22 02:46:34;;;;;;;68.25;35.43;;;;;;;-1.46;100.00;99571.72;1775201;78;21614;-51
2021/01/22 02:49:03;;;;;;;73.12;35.95;;;;;;;-1.47;100.00;99576.59;1735070;80;21139;-49
2021/01/22 02:51:31;;;;;;;75.60;38.73;;;;;;;-1.47;100.00;99575.27;1724266;81;21128;-50
2021/01/22 02:53:59;;;;;;;68.20;35.70;;;;;;;-1.49;100.00;99574.37;1728042;81;21031;-49
2021/01/22 02:56:50;;;;;;;72.12;35.88;;;;;;;-1.47;100.00;99575.27;1725178;80;21611;-49
2021/01/22 02:59:39;;;;;;;76.80;36.42;;;;;;;-1.48;100.00;99569.09;1726768;81;21035;-49
2021/01/22 03:02:24;;;;;;;75.30;37.95;;;;;;;-1.48;100.00;99568.22;1706167;81;21139;-50
2021/01/22 03:04:53;;;;;;;72.45;35.25;;;;;;;-1.50;100.00;99564.69;1736608;80;21273;-51
2021/01/22 03:07:29;;;;;;;74.60;34.58;;;;;;;-1.48;100.00;99566.90;1726457;80;21138;-51
2021/01/22 03:09:59;;;;;;;72.70;35.58;;;;;;;-1.49;100.00;99555.86;1727703;80;21363;-50
2021/01/22 03:12:28;;;;;;;76.57;35.78;;;;;;;-1.47;100.00;99562.04;1726718;80;21157;-50
2021/01/22 03:14:58;;;;;;;72.87;36.15;;;;;;;-1.46;100.00;99557.19;1700371;81;21320;-49
2021/01/22 03:17:26;;;;;;;78.55;37.90;;;;;;;-1.47;100.00;99552.34;1715364;81;21418;-49
2021/01/22 03:19:56;;;;;;;67.08;33.25;;;;;;;-1.46;100.00;99546.60;1713979;81;20952;-50
2021/01/22 03:22:24;;;;;;;75.28;37.03;;;;;;;-1.45;100.00;99536.45;1710705;81;21219;-50
2021/01/22 03:24:52;;;;;;;73.95;34.85;;;;;;;-1.45;100.00;99541.74;1768736;78;21601;-50
2021/01/22 03:27:19;;;;;;;65.80;32.13;;;;;;;-1.44;100.00;99540.85;1769659;78;21012;-51
2021/01/22 03:29:47;;;;;;;71.90;35.90;;;;;;;-1.41;100.00;99540.84;1765833;78;21633;-50
2021/01/22 03:32:16;;;;;;;71.87;34.45;;;;;;;-1.39;100.00;99537.29;1767877;78;21128;-52
2021/01/22 03:34:44;;;;;;;71.37;32.03;;;;;;;-1.37;100.00;99539.95;1769606;78;22028;-50
2021/01/22 03:37:12;;;;;;;66.67;32.85;;;;;;;-1.37;100.00;99537.30;1768118;78;21542;-51
2021/01/22 03:39:40;;;;;;;62.90;33.02;;;;;;;-1.37;100.00;99541.27;1766995;78;21567;-50
2021/01/22 03:42:09;;;;;;;74.97;35.68;;;;;;;-1.34;100.00;99537.27;1765595;78;21032;-51
2021/01/22 03:44:37;;;;;;;68.85;34.08;;;;;;;-1.36;100.00;99541.70;1767928;78;21557;-51
2021/01/22 03:47:06;;;;;;;70.12;34.45;;;;;;;-1.34;100.00;99535.95;1767484;78;21214;-49
2021/01/22 03:49:34;;;;;;;72.15;34.78;;;;;;;-1.31;100.00;99542.55;1766857;78;21130;-49
2021/01/22 03:52:03;;;;;;;67.78;32.88;;;;;;;-1.31;100.00;99546.52;1765057;78;21293;-50
2021/01/22 03:54:31;;;;;;;63.63;32.58;;;;;;;-1.31;100.00;99543.87;1766828;78;21500;-50
2021/01/22 03:56:59;;;;;;;77.65;37.03;;;;;;;-1.28;100.00;99547.81;1768656;78;21140;-49
2021/01/22 03:59:27;;;;;;;64.72;32.78;;;;;;;-1.28;100.00;99539.00;1769927;78;21436;-50
2021/01/22 04:01:55;;;;;;;70.57;34.63;;;;;;;-1.29;100.00;99534.16;1768274;79;21111;-49
2021/01/22 04:04:23;;;;;;;66.65;32.73;;;;;;;-1.29;100.00;99539.44;1767165;79;21147;-49
2021/01/22 04:06:53;;;;;;;68.62;31.90;;;;;;;-1.29;100.00;99532.83;1764922;78;20978;-49
2021/01/22 04:09:21;;;;;;;67.32;33.65;;;;;;;-1.28;100.00;99535.91;1768796;78;21568;-50
2021/01/22 04:11:49;;;;;;;68.78;33.63;;;;;;;-1.28;100.00;99542.52;1761783;79;22284;-53
2021/01/22 04:14:17;;;;;;;67.78;34.58;;;;;;;-1.27;100.00;99546.95;1765308;78;21023;-50
2021/01/22 04:16:45;;;;;;;66.42;32.85;;;;;;;-1.26;100.00;99545.18;1761965;78;21176;-50
2021/01/22 04:19:13;;;;;;;67.17;33.05;;;;;;;-1.23;100.00;99535.88;1761449;78;21134;-52
2021/01/22 04:21:42;;;;;;;66.05;33.65;;;;;;;-1.23;100.00;99543.37;1763902;79;21117;-52
2021/01/22 04:24:11;;;;;;;69.07;32.95;;;;;;;-1.22;100.00;99526.64;1763482;78;21206;-51
2021/01/22 04:26:41;;;;;;;73.57;34.70;;;;;;;-1.19;100.00;99539.83;1762589;79;21009;-50
2021/01/22 04:29:11;;;;;;;73.15;35.17;;;;;;;-1.18;100.00;99528.34;1761033;78;21102;-57
2021/01/22 04:31:40;;;;;;;66.02;32.70;;;;;;;-1.16;100.00;99534.53;1763448;79;21528;-51
2021/01/22 04:34:09;;;;;;;61.80;33.67;;;;;;;-1.13;100.00;99539.78;1763303;78;21272;-51
2021/01/22 04:36:37;;;;;;;65.52;31.60;;;;;;;-1.13;100.00;99535.81;1763975;79;22033;-50
2021/01/22 04:39:05;;;;;;;69.27;33.88;;;;;;;-1.12;100.00;99529.66;1763117;79;20983;-51
2021/01/22 04:41:34;;;;;;;64.90;31.45;;;;;;;-1.11;100.00;99527.44;1745069;79;21048;-51
2021/01/22 04:44:03;;;;;;;65.75;33.40;;;;;;;-1.09;100.00;99530.94;1722780;81;21139;-49
2021/01/22 04:46:34;;;;;;;62.17;32.95;;;;;;;-1.11;100.00;99527.44;1744687;79;21546;-51
2021/01/22 04:49:04;;;;;;;61.10;32.85;;;;;;;-1.11;100.00;99522.15;1745447;79;21207;-50
2021/01/22 04:51:36;;;;;;;65.57;32.25;;;;;;;-1.11;100.00;99524.80;1745234;79;21028;-50
2021/01/22 04:54:11;;;;;;;69.00;34.85;;;;;;;-1.11;100.00;99519.50;1745126;79;21017;-51
2021/01/22 04:56:47;;;;;;;60.65;31.00;;;;;;;-1.04;100.00;99517.68;1858853;75;22710;-50
2021/01/22 04:59:24;;;;;;;67.20;34.70;;;;;;;-1.08;100.00;99524.75;1767152;78;20973;-50
2021/01/22 05:01:52;;;;;;;68.47;33.13;;;;;;;-1.06;100.00;99528.29;1796209;77;21460;-50
2021/01/22 05:04:20;;;;;;;74.30;36.33;;;;;;;-1.03;100.00;99531.79;1763439;78;21010;-50
2021/01/22 05:06:48;;;;;;;62.83;33.10;;;;;;;-1.02;100.00;99530.89;1796767;78;21534;-49
2021/01/22 05:09:17;;;;;;;75.90;35.48;;;;;;;-1.01;100.00;99517.67;1794043;77;20978;-53
2021/01/22 05:11:54;;;;;;;64.65;33.02;;;;;;;-1.01;100.00;99518.09;1797476;77;20986;-50
2021/01/22 05:14:22;;;;;;;71.22;34.30;;;;;;;-0.99;100.00;99520.30;1798584;77;22269;-50
2021/01/22 05:17:09;;;;;;;62.65;32.65;;;;;;;-0.99;100.00;99521.17;1794827;77;20977;-50
2021/01/22 05:19:41;;;;;;;64.58;33.13;;;;;;;-0.99;100.00;99522.95;1795768;78;20993;-50
2021/01/22 05:22:17;;;;;;;67.70;33.28;;;;;;;-0.97;100.00;99526.45;1762417;78;21671;-52
2021/01/22 05:24:45;;;;;;;66.30;34.13;;;;;;;-0.96;100.00;99530.84;1737086;79;21120;-50
2021/01/22 05:27:14;;;;;;;67.78;33.70;;;;;;;-0.93;100.00;99533.48;1768186;79;21211;-50
2021/01/22 05:29:43;;;;;;;68.45;35.15;;;;;;;-0.91;100.00;99529.05;1794791;77;21178;-50
2021/01/22 05:32:28;;;;;;;64.80;33.38;;;;;;;-0.91;100.00;99529.05;1767717;77;21140;-50
2021/01/22 05:34:58;;;;;;;68.30;32.98;;;;;;;-0.92;100.00;99527.30;1795369;78;21104;-50
2021/01/22 05:37:26;;;;;;;76.02;35.83;;;;;;;-0.91;100.00;99529.05;1792152;77;21672;-50
2021/01/22 05:40:12;;;;;;;74.40;35.85;;;;;;;-0.90;100.00;99530.38;1796229;77;22196;-50
2021/01/22 05:42:53;;;;;;;73.07;35.65;;;;;;;-0.90;100.00;99534.80;1794505;77;21017;-51
2021/01/22 05:45:45;;;;;;;68.02;33.20;;;;;;;-0.90;100.00;99528.18;1796831;77;21010;-51
2021/01/22 05:48:24;;;;;;;66.65;33.83;;;;;;;-0.88;100.00;99532.55;1793690;77;21526;-50
2021/01/22 05:50:57;;;;;;;68.47;34.10;;;;;;;-0.86;100.00;99528.11;1768336;78;21168;-50
2021/01/22 05:53:26;;;;;;;71.30;36.35;;;;;;;-0.85;100.00;99532.55;1759976;79;21206;-50
2021/01/22 05:56:08;;;;;;;71.47;35.17;;;;;;;-0.83;100.00;99521.94;1798011;77;21128;-50
2021/01/22 05:58:37;;;;;;;71.35;36.03;;;;;;;-0.82;100.00;99527.66;1799582;77;21190;-52
2021/01/22 06:01:18;;;;;;;70.75;35.52;;;;;;;-0.81;100.00;99530.73;1775951;79;21104;-51
2021/01/22 06:03:55;;;;;;;70.83;36.70;;;;;;;-0.80;100.00;99529.83;1773701;78;20977;-51
2021/01/22 06:06:29;;;;;;;68.33;34.58;;;;;;;-0.78;100.00;99525.42;1801875;77;21516;-52
2021/01/22 06:08:58;;;;;;;71.65;34.27;;;;;;;-0.75;100.00;99524.51;1802659;77;20977;-51
2021/01/22 06:11:31;;;;;;;77.17;39.60;;;;;;;-0.75;100.00;99535.97;1771190;78;21061;-50
2021/01/22 06:14:04;;;;;;;72.75;37.30;;;;;;;-0.75;100.00;99529.35;1780999;78;20981;-52
2021/01/22 06:16:32;;;;;;;67.75;33.78;;;;;;;-0.75;100.00;99538.62;1799543;77;21200;-51
2021/01/22 06:19:06;;;;;;;74.77;35.05;;;;;;;-0.76;100.00;99538.64;1801764;77;21608;-53
2021/01/22 06:21:56;;;;;;;79.03;37.35;;;;;;;-0.69;100.00;99538.59;1813818;76;22711;-50
2021/01/22 06:24:24;;;;;;;70.30;35.92;;;;;;;-0.70;100.00;99535.94;1789591;77;21109;-50
2021/01/22 06:26:54;;;;;;;74.80;34.00;;;;;;;-0.69;100.00;99530.66;1732737;81;21387;-54
2021/01/22 06:29:22;;;;;;;77.20;36.17;;;;;;;-0.70;100.00;99531.52;1669651;82;21035;-52
2021/01/22 06:31:51;;;;;;;75.85;35.20;;;;;;;-0.71;100.00;99531.55;1723558;81;21626;-50
2021/01/22 06:34:21;;;;;;;78.10;40.05;;;;;;;-0.72;100.00;99528.02;1720661;81;20987;-51
2021/01/22 06:36:49;;;;;;;90.87;40.00;;;;;;;-0.71;100.00;99524.47;1724789;81;21587;-50
2021/01/22 06:39:17;;;;;;;67.27;34.23;;;;;;;-0.71;100.00;99528.89;1724211;81;21385;-53
2021/01/22 06:41:45;;;;;;;74.77;35.88;;;;;;;-0.70;100.00;99528.87;1722069;81;20979;-53
2021/01/22 06:44:13;;;;;;;68.70;35.00;;;;;;;-0.69;100.00;99522.70;1723791;81;21011;-50
2021/01/22 06:46:42;;;;;;;76.37;38.33;;;;;;;-0.70;100.00;99526.22;1725496;81;21026;-50
2021/01/22 06:49:10;;;;;;;78.20;36.35;;;;;;;-0.70;100.00;99528.87;1725735;81;21750;-48
2021/01/22 06:51:39;;;;;;;76.53;37.42;;;;;;;-0.70;100.00;99523.58;1725135;81;21406;-50
2021/01/22 06:54:18;;;;;;;73.72;38.40;;;;;;;-0.71;100.00;99529.77;1722859;81;22152;-50
2021/01/22 06:56:57;;;;;;;77.72;38.38;;;;;;;-0.70;100.00;99519.61;1720438;81;21030;-49
2021/01/22 06:59:35;;;;;;;78.37;38.02;;;;;;;-0.69;100.00;99525.36;1718527;81;20978;-50
2021/01/22 07:02:02;;;;;;;80.30;39.70;;;;;;;-0.68;100.00;99513.87;1723601;81;21133;-49
2021/01/22 07:04:37;;;;;;;73.65;35.85;;;;;;;-0.68;100.00;99516.52;1722921;81;21265;-49
2021/01/22 07:07:08;;;;;;;79.75;38.00;;;;;;;-0.66;100.00;99527.96;1722489;81;21672;-48
2021/01/22 07:09:50;;;;;;;76.30;38.78;;;;;;;-0.64;100.00;99521.31;1724605;81;21022;-48
2021/01/22 07:12:39;;;;;;;70.12;35.70;;;;;;;-0.61;100.00;99515.56;1722062;81;21030;-51
2021/01/22 07:15:27;;;;;;;73.97;38.25;;;;;;;-0.58;100.00;99524.81;1726006;81;20983;-52
2021/01/22 07:17:59;;;;;;;74.80;37.95;;;;;;;-0.57;100.00;99519.94;1729034;81;21929;-51
2021/01/22 07:20:30;;;;;;;83.95;38.50;;;;;;;-0.55;100.00;99531.39;1725036;81;21145;-50
2021/01/22 07:23:01;;;;;;;73.55;37.28;;;;;;;-0.52;100.00;99512.41;1726697;81;20999;-52
2021/01/22 07:25:38;;;;;;;75.03;38.53;;;;;;;-0.52;100.00;99516.38;1723061;81;20990;-55
2021/01/22 07:28:22;;;;;;;71.67;36.45;;;;;;;-0.50;100.00;99510.61;1727539;81;21086;-50
2021/01/22 07:30:52;;;;;;;75.80;37.35;;;;;;;-0.48;100.00;99511.05;1724075;81;21392;-55
2021/01/22 07:33:32;;;;;;;74.05;38.23;;;;;;;-0.43;100.00;99508.33;1720830;81;21042;-52
2021/01/22 07:36:12;;;;;;;74.42;37.13;;;;;;;-0.39;100.00;99518.00;1724444;81;21164;-54
2021/01/22 07:38:40;;;;;;;74.87;38.65;;;;;;;-0.35;100.00;99519.73;1721228;81;21219;-54
2021/01/22 07:41:09;;;;;;;72.55;37.80;;;;;;;-0.32;100.00;99506.44;1728310;81;21136;-54
2021/01/22 07:43:37;;;;;;;78.80;40.73;;;;;;;-0.26;100.00;99511.70;1727247;81;21435;-53
2021/01/22 07:46:09;;;;;;;73.80;38.30;;;;;;;-0.20;100.00;99508.11;1725496;81;21186;-53
2021/01/22 07:48:37;;;;;;;;;;;;;;;-0.13;100.00;99515.97;1722359;81;21156;-53
2021/01/22 07:51:36;;;;;;;73.20;36.23;;;;;;;-0.10;100.00;99515.95;1723266;81;20265;-53
2021/01/22 07:54:04;;;;;;;67.87;36.93;;;;;;;-0.06;100.00;99509.69;1724048;81;21129;-53
2021/01/22 07:56:38;;;;;;;72.78;37.35;;;;;;;-0.03;100.00;99525.57;1724789;81;22067;-53
2021/01/22 07:59:11;;;;;;;74.25;39.18;;;;;;;-0.01;100.00;99511.84;1722107;81;21786;-50
2021/01/22 08:01:41;;;;;;;69.30;37.08;;;;;;;0.01;100.00;99505.22;1704653;81;21144;-54
2021/01/22 08:04:09;;;;;;;70.17;37.00;;;;;;;0.07;100.00;99519.72;1723306;81;21742;-51
2021/01/22 08:06:49;;;;;;;75.87;39.38;;;;;;;0.11;100.00;99512.17;1727873;81;21074;-51
2021/01/22 08:09:18;;;;;;;68.62;36.98;;;;;;;0.16;100.00;99520.04;1726302;81;22088;-49
2021/01/22 08:11:48;;;;;;;71.77;37.23;;;;;;;0.15;100.00;99526.25;1725118;81;21140;-51
2021/01/22 08:14:30;;;;;;;71.53;38.00;;;;;;;0.14;100.00;99521.84;1724966;81;21172;-50
2021/01/22 08:17:06;;;;;;;72.65;37.60;;;;;;;0.13;100.00;99518.77;1727519;81;21614;-49
2021/01/22 08:19:35;;;;;;;72.90;39.20;;;;;;;0.13;100.00;99509.49;1722966;81;21203;-48
2021/01/22 08:22:03;;;;;;;70.75;38.40;;;;;;;0.16;100.00;99512.09;1738275;80;22120;-50
2021/01/22 08:24:32;;;;;;;73.97;35.60;;;;;;;0.19;100.00;99522.67;1741815;80;21179;-53
2021/01/22 08:27:03;;;;;;;70.22;38.65;;;;;;;0.26;100.00;99508.43;1742838;80;21149;-51
2021/01/22 08:29:34;;;;;;;74.97;40.08;;;;;;;0.31;100.00;99508.38;1721977;81;21146;-54
2021/01/22 08:32:05;;;;;;;70.78;36.68;;;;;;;0.36;100.00;99514.05;1723779;81;20980;-54
2021/01/22 08:34:34;;;;;;;70.10;37.80;;;;;;;0.40;100.00;99510.92;1718652;80;21422;-53
2021/01/22 08:37:05;;;;;;;69.62;38.25;;;;;;;0.45;100.00;99513.94;1722082;81;21079;-54
2021/01/22 08:39:58;;;;;;;69.07;36.35;;;;;;;0.47;100.00;99501.52;1720995;81;21607;-49
2021/01/22 08:42:26;;;;;;;73.70;37.30;;;;;;;0.52;100.00;99508.09;1727221;81;21154;-50
2021/01/22 08:45:01;;;;;;;71.15;39.10;;;;;;;0.54;100.00;99512.08;1725890;81;21176;-49
2021/01/22 08:47:32;;;;;;;72.95;36.85;;;;;;;0.54;100.00;99510.75;1726192;80;21268;-52
2021/01/22 08:50:03;;;;;;;64.12;35.28;;;;;;;0.56;100.00;99511.59;1737453;81;21018;-54
2021/01/22 08:52:31;;;;;;;66.50;37.05;;;;;;;0.58;100.00;99502.70;1740184;81;21591;-48
2021/01/22 08:54:59;;;;;;;66.37;36.00;;;;;;;0.60;100.00;99505.34;1737472;81;21119;-54
2021/01/22 08:57:29;;;;;;;68.45;35.43;;;;;;;0.64;100.00;99505.29;1731199;81;21698;-52
2021/01/22 08:59:58;;;;;;;67.95;37.45;;;;;;;0.65;100.00;99491.57;1727786;81;21242;-54
2021/01/22 09:02:41;;;;;;;62.00;35.23;;;;;;;0.66;100.00;99501.28;1732061;81;21171;-54
2021/01/22 09:08:09;;;;;;;68.20;37.75;;;;;;;0.74;100.00;99480.34;1822475;76;22799;-51
2021/01/22 09:10:45;;;;;;;74.05;36.58;;;;;;;0.71;100.00;99482.19;1801797;76;21033;-54
2021/01/22 09:16:04;;;;;;;68.07;37.83;;;;;;;0.79;100.00;99473.64;1776643;78;22829;-51
2021/01/22 09:18:35;;;;;;;60.55;35.33;;;;;;;0.73;100.00;99472.41;1749574;79;21057;-49
2021/01/22 09:21:07;;;;;;;;;;;;;;;0.76;100.00;99477.69;1755442;80;23453;-51
2021/01/22 09:23:36;;;;;;;63.08;37.60;;;;;;;0.79;100.00;99467.01;1700599;83;20174;-53
2021/01/22 09:26:04;;;;;;;67.55;35.68;;;;;;;0.82;100.00;99474.06;1750146;80;20939;-52
2021/01/22 09:28:33;;;;;;;63.48;34.25;;;;;;;0.84;100.00;99478.43;1748344;80;21558;-48
2021/01/22 09:31:01;;;;;;;63.60;35.45;;;;;;;0.88;99.92;99472.19;1750218;80;21104;-49
2021/01/22 09:33:29;;;;;;;58.13;34.15;;;;;;;0.91;99.76;99469.95;1748642;80;21369;-52
2021/01/22 09:35:59;;;;;;;65.25;34.60;;;;;;;0.94;99.42;99461.46;1753444;80;21005;-53
2021/01/22 09:38:27;;;;;;;61.90;34.63;;;;;;;0.95;99.16;99461.88;1758067;80;21053;-49
2021/01/22 09:40:55;;;;;;;62.05;34.90;;;;;;;0.98;99.06;99452.55;1750089;80;21602;-52
2021/01/22 09:43:23;;;;;;;68.42;36.33;;;;;;;1.02;99.00;99454.27;1752268;80;21048;-50
2021/01/22 09:45:51;;;;;;;62.83;35.73;;;;;;;1.07;98.73;99457.30;1748074;80;21393;-51
2021/01/22 09:48:19;;;;;;;65.83;35.98;;;;;;;1.10;98.66;99449.27;1736639;80;21150;-50
2021/01/22 09:50:48;;;;;;;61.05;34.80;;;;;;;1.10;98.06;99445.28;1750744;80;21515;-51
2021/01/22 09:53:16;;;;;;;60.03;33.25;;;;;;;1.11;97.94;99435.08;1747185;80;21020;-50
2021/01/22 09:55:46;;;;;;;63.63;34.40;;;;;;;1.15;97.88;99439.44;1744848;80;21010;-51
2021/01/22 09:58:14;;;;;;;57.25;33.08;;;;;;;1.19;97.76;99437.17;1747361;80;21562;-48
2021/01/22 10:00:43;;;;;;;57.70;35.10;;;;;;;1.24;97.54;99433.98;1749129;80;21136;-56
2021/01/22 10:03:12;;;;;;;59.30;33.02;;;;;;;1.27;97.28;99437.89;1749139;80;21127;-55
2021/01/22 10:05:42;;;;;;;60.15;33.35;;;;;;;1.31;97.06;99439.60;1714455;81;21117;-52
2021/01/22 10:08:10;;;;;;;60.40;35.08;;;;;;;1.37;96.88;99442.59;1713139;81;21161;-50
2021/01/22 10:10:40;;;;;;;64.72;35.23;;;;;;;1.40;96.51;99435.45;1702717;81;21217;-49
2021/01/22 10:13:09;;;;;;;55.98;33.08;;;;;;;1.44;96.18;99431.84;1753135;79;21176;-56
2021/01/22 10:15:38;;;;;;;59.10;34.50;;;;;;;1.49;96.06;99435.30;1755407;79;20954;-55
2021/01/22 10:18:07;;;;;;;60.70;33.25;;;;;;;1.56;95.73;99425.42;1755403;79;21688;-55
2021/01/22 10:20:42;;;;;;;56.58;34.00;;;;;;;1.60;95.30;99423.55;1747428;79;21164;-49
2021/01/22 10:23:12;;;;;;;56.20;32.55;;;;;;;1.65;95.11;99425.67;1748695;79;22282;-55
2021/01/22 10:25:43;;;;;;;56.50;32.58;;;;;;;1.71;94.88;99417.61;1751154;79;21213;-53
2021/01/22 10:28:12;;;;;;;57.80;32.70;;;;;;;1.76;94.41;99416.61;1750149;79;21057;-55
2021/01/22 10:30:40;;;;;;;55.03;32.55;;;;;;;1.78;94.11;99424.55;1753270;79;21193;-50
2021/01/22 10:33:08;;;;;;;53.42;32.30;;;;;;;1.82;93.95;99416.48;1749661;80;21545;-50
2021/01/22 10:35:37;;;;;;;61.73;32.15;;;;;;;1.88;93.66;99418.14;1750429;80;21170;-51
2021/01/22 10:38:06;;;;;;;51.90;31.57;;;;;;;1.90;93.35;99416.31;1751372;79;21237;-57
2021/01/22 10:40:34;;;;;;;52.80;30.82;;;;;;;1.92;93.16;99406.54;1751487;79;20982;-54
2021/01/22 10:43:03;;;;;;;54.23;30.65;;;;;;;1.94;92.89;99403.38;1751360;80;21125;-54
2021/01/22 10:45:30;;;;;;;58.38;32.95;;;;;;;1.97;92.61;99407.32;1748328;79;21144;-55
2021/01/22 10:47:58;;;;;;;55.38;32.33;;;;;;;1.97;92.27;99402.42;1750969;80;21583;-56
2021/01/22 10:50:26;;;;;;;51.73;30.88;;;;;;;1.99;92.16;99401.50;1713412;82;21921;-55
2021/01/22 10:52:54;;;;;;;59.85;32.50;;;;;;;2.00;91.99;99391.28;1749317;79;21033;-54
2021/01/22 10:55:22;;;;;;;54.85;31.68;;;;;;;2.02;91.83;99386.79;1753223;79;20994;-55
2021/01/22 10:57:50;;;;;;;55.40;32.80;;;;;;;2.05;91.63;99392.05;1751935;79;20970;-58
2021/01/22 11:00:19;;;;;;;57.67;32.85;;;;;;;2.05;91.23;99385.41;1753046;79;22257;-52
2021/01/22 11:02:47;;;;;;;59.70;32.70;;;;;;;2.06;91.09;99380.50;1691271;82;21148;-57
2021/01/22 11:05:16;;;;;;;56.30;32.00;;;;;;;2.09;91.10;99375.59;1750245;80;21141;-56
2021/01/22 11:07:44;;;;;;;53.73;32.48;;;;;;;2.12;91.08;99378.63;1747401;79;21152;-56
2021/01/22 11:10:12;;;;;;;52.88;32.73;;;;;;;2.19;91.07;99366.95;1748622;80;21062;-54
2021/01/22 11:12:40;;;;;;;57.75;34.98;;;;;;;2.22;90.60;99365.08;1750245;79;21388;-53
2021/01/22 11:15:09;;;;;;;54.93;33.10;;;;;;;2.25;90.45;99362.82;1744916;78;21240;-56
2021/01/22 11:17:37;;;;;;;54.83;32.60;;;;;;;2.29;90.40;99352.50;1720368;81;21209;-57
2021/01/22 11:20:07;;;;;;;54.58;31.30;;;;;;;2.31;89.94;99350.25;1717398;81;21126;-57
2021/01/22 11:22:35;;;;;;;50.98;30.25;;;;;;;2.34;89.66;99346.63;1719574;81;21063;-59
2021/01/22 11:25:04;;;;;;;53.23;33.13;;;;;;;2.38;89.72;99344.31;1716119;81;22382;-51
2021/01/22 11:27:33;;;;;;;57.75;34.40;;;;;;;2.43;89.65;99341.09;1715750;81;21201;-52
2021/01/22 11:30:01;;;;;;;59.27;33.50;;;;;;;2.47;89.29;99333.92;1719506;81;21619;-59
2021/01/22 11:32:29;;;;;;;51.42;31.48;;;;;;;2.50;89.24;99345.80;1717580;81;20984;-55
2021/01/22 11:34:57;;;;;;;56.10;33.15;;;;;;;2.55;89.21;99343.45;1716499;81;21547;-57
2021/01/22 11:37:26;;;;;;;51.68;30.80;;;;;;;2.58;89.05;99334.06;1725475;80;21231;-58
2021/01/22 11:39:54;;;;;;;54.18;30.97;;;;;;;2.60;88.65;99332.23;1719567;81;21178;-60
2021/01/22 11:42:23;;;;;;;56.92;32.98;;;;;;;2.60;88.40;99337.55;1717109;81;21221;-57